Koninklijk Nederlands Meteorologisch Instituut; Ministerie van Verkeer en Waterstaat

 
Weer
Nederlandse vliegveldverwachtingen (TAF)
ZCZC
FT272300 EHAM     AMSTERDAM/SCHIPHOL   NLD   -3 m.
TAF EHAM 272300Z 2800/2906 11009KT 4000 BR BKN006
    PROB30 2800/2803 2500 DZ BR BKN004
    BECMG 2801/2804 BKN015
    BECMG 2807/2810 6000 NSW
    BECMG 2810/2813 10014KT 8000 NSC=

ZCZC
FT272300 EHBK     MAASTRICHT/MAASTRICHT-AACHEN   NLD   114 m.
TAF EHBK 272309Z 2800/2906 09006KT 5000 SCT015
    BECMG 2808/2810 08010KT CAVOK=

ZCZC
FT272300 EHGG     GRONINGEN/EELDE   NLD   5 m.
TAF EHGG 272308Z 2800/2906 10012KT 8000 NSC
    PROB40 2800/2809 5000 BR=

ZCZC
FT272300 EHEH     EINDHOVEN/EINDHOVEN   NLD   22 m.
TAF EHEH 272355Z 2800/2906 12007KT 7000 SCT020 BKN030
    PROB30 TEMPO 2800/2805 SCT008 BKN020
    BECMG 2807/2809 09012KT CAVOK=

ZCZC
FT272300 EHRD AAA ROTTERDAM/THE HAGUE AIRPORT   NLD   -5 m.
TAF AMD EHRD 280238Z 2802/2906 11009KT 7000 SCT016
    BECMG 2810/2813 10014KT 9000 NSC=

ZCZC
FC280100 EHWO     WOENSDRECHT/WOENSDRECHT   NLD   19 m.
TAF EHWO 280100Z NIL=

ZCZC
FC280100 EHVK     VOLKEL/VOLKEL   NLD   21 m.
TAF EHVK 280123Z 2802/2814 09007KT 7000 SCT020 BKN030
    PROB30 TEMPO 2802/2805 SCT008 BKN020
    BECMG 2807/2809 09012KT=

ZCZC
FC280100 EHLW     LEEUWARDEN/LEEUWARDEN   NLD   1 m.
TAF EHLW 280100Z NIL=

ZCZC
FC280100 EHGR     GILZE-RIJEN/GILZE-RIJEN   NLD   14 m.
TAF EHGR 280100Z NIL=

ZCZC
FC280200 EHKD     DE KOOY/DE KOOY   NLD   1 m.
TAF EHKD 280125Z 2802/2814 10012KT 6000 OVC007
    PROB30 TEMPO 2804/2809 SCT004 BKN006
    BECMG 2809/2811 CAVOK=